Wes Sellars — WDF9302 — position and weather

sailwx.info

Track history (hours):
 
Tides and Currents Weather Stations Pressure Air Temp Water Temp Dewpoint Dewpoint Depression Visibility Wind Speed Wind Dir Waves Ship Positions

Wes Sellars

Owner: Florida Marine, LLC, Mandeville, LA. More information available from US FCC via Universal Licensing System and Coast Guard Vessel Documentation Center.

Last reported at 2017-May-22 05:50 UTC. Time now 2017-Aug-21 04:23 UTC.
Position N 32°54' W 091°04'.
Warning: this ship's position is months out of date.

Length 27 m; draft 2.9 m.

Type: Towing. MMSI: 367503760.

Date/timePositionNaut miles runAvg speedWind from/ knotsBaromVisibWave heightAir tempDewpointWater temp
2017-May-22 05:50N 32°54' W 091°04'2 4.8
2017-May-22 05:26N 32°53' W 091°05'4 4.1
2017-May-22 04:32N 32°50' W 091°08'0 4.2
2017-May-22 04:30N 32°50' W 091°08'2 3.4
2017-May-22 03:49N 32°48' W 091°10'2 2.8
2017-May-22 03:06N 32°46' W 091°09'0 2.5
2017-May-22 03:00N 32°45' W 091°09'4 3.0
2017-May-22 01:33N 32°44' W 091°04'0 4.9
2017-May-22 01:30N 32°44' W 091°04'1 3.0
2017-May-22 01:00N 32°43' W 091°04'2 4.2
2017-May-22 00:30N 32°41' W 091°05'2 4.0
2017-May-21 23:58N 32°40' W 091°08'2 4.1
2017-May-21 23:28N 32°38' W 091°09'2 4.0
2017-May-21 23:00N 32°37' W 091°09'2 3.3
2017-May-21 22:30N 32°35' W 091°07'2 3.9
2017-May-21 22:00N 32°34' W 091°06'2 3.6
2017-May-21 21:30N 32°32' W 091°06'2 4.7
2017-May-21 21:00N 32°30' W 091°07'2 3.4
2017-May-21 20:30N 32°28' W 091°06'2 3.7
2017-May-21 20:00N 32°27' W 091°05'2 3.1
2017-May-21 19:30N 32°26' W 091°03'1 2.0
2017-May-21 19:00N 32°26' W 091°02'1 2.7
2017-May-21 18:30N 32°25' W 091°00'1 2.7
2017-May-21 18:00N 32°24' W 090°60'2 3.4
2017-May-21 17:30N 32°23' W 091°00'2 3.1
2017-May-21 17:00N 32°21' W 090°60'2 4.3
2017-May-21 16:30N 32°21' W 090°57'2 4.1
2017-May-21 16:00N 32°20' W 090°55'1 2.3
2017-May-21 15:30N 32°19' W 090°54'2 3.3
2017-May-21 15:00N 32°18' W 090°56'2 3.3
2017-May-21 14:30N 32°17' W 090°57'3 3.5
2017-May-21 13:30N 32°14' W 090°59'2 3.4
2017-May-21 13:00N 32°12' W 090°60'2 3.8
2017-May-21 12:30N 32°10' W 091°00'2 3.0
2017-May-21 12:00N 32°09' W 091°00'2 3.2
2017-May-21 11:30N 32°08' W 091°01'2 3.8
2017-May-21 10:59N 32°08' W 091°04'2 3.3
2017-May-21 10:30N 32°08' W 091°06'1 2.8
2017-May-21 10:00N 32°06' W 091°06'2 5.0
2017-May-21 09:30N 32°05' W 091°04'2 4.1
2017-May-21 09:00N 32°03' W 091°04'3 4.5
2017-May-21 08:19N 31°60' W 091°05'2 3.5
2017-May-21 07:47N 31°59' W 091°07'1 3.3
2017-May-21 07:30N 31°59' W 091°09'2 4.0
2017-May-21 07:00N 31°58' W 091°11'2 3.2
2017-May-21 06:30N 31°57' W 091°11'3 4.5
2017-May-21 05:47N 31°54' W 091°12'1 2.8
2017-May-21 05:30N 31°53' W 091°13'2 3.9
2017-May-21 04:59N 31°52' W 091°15'2 3.7
2017-May-21 04:30N 31°51' W 091°17'2 3.8
2017-May-21 04:00N 31°51' W 091°19'2 3.3
2017-May-21 03:30N 31°51' W 091°21'2 3.8
2017-May-21 03:00N 31°49' W 091°21'2 4.2
2017-May-21 02:28N 31°46' W 091°22'  
2017-May-15 12:30N 29°33' W 090°24'0 0.9
2017-May-15 12:00N 29°33' W 090°25'1 1.4
2017-May-15 11:30N 29°33' W 090°25'3 5.4
2017-May-15 11:00N 29°34' W 090°29'3 5.3
2017-May-15 10:30N 29°34' W 090°31'3 5.1
2017-May-15 10:00N 29°34' W 090°34'2 4.8
2017-May-15 09:30N 29°35' W 090°37'2 4.3
2017-May-15 09:00N 29°36' W 090°39'2 4.3
2017-May-15 08:30N 29°37' W 090°41'2 3.3
2017-May-15 08:00N 29°35' W 090°43'2 3.8
2017-May-15 07:30N 29°34' W 090°44'2 3.8
2017-May-15 07:00N 29°33' W 090°46'3 5.8
2017-May-15 06:30N 29°32' W 090°49'3 6.1
2017-May-15 05:58N 29°32' W 090°53'3 6.3
2017-May-15 05:28N 29°34' W 090°56'97 4.3
2017-May-14 06:52N 29°58' W 092°44'2 5.5
2017-May-14 06:30N 29°58' W 092°46'10 4.9
2017-May-14 04:29N 29°56' W 092°57'2 4.4
2017-May-14 04:00N 29°56' W 092°60'2 4.6
2017-May-14 03:30N 29°56' W 093°02'2 4.4
2017-May-14 03:00N 29°56' W 093°05'2 4.4
2017-May-14 02:30N 29°56' W 093°07'2 4.3
2017-May-14 02:00N 29°56' W 093°10'2 4.7
2017-May-14 01:30N 29°58' W 093°12'2 4.4
2017-May-14 01:00N 29°60' W 093°13'2 3.6
2017-May-14 00:30N 30°02' W 093°14'1 2.6
2017-May-14 00:00N 30°02' W 093°15'2 3.9
2017-May-13 23:30N 30°04' W 093°16'2 4.0
2017-May-13 23:00N 30°05' W 093°18'1 1.5
2017-May-13 22:30N 30°06' W 093°18'0 0.0
2017-May-13 22:00N 30°06' W 093°18'0 0.0
2017-May-13 21:30N 30°06' W 093°18'0 0.1
2017-May-13 21:00N 30°06' W 093°18'0 0.1
2017-May-13 20:30N 30°06' W 093°18'1 2.4
2017-May-13 20:00N 30°05' W 093°20'2 4.0
2017-May-13 19:30N 30°04' W 093°21'2 3.3
2017-May-13 19:00N 30°04' W 093°23'2 4.8
2017-May-13 18:30N 30°04' W 093°26'2 4.7
2017-May-13 18:00N 30°04' W 093°28'2 4.3
2017-May-13 17:30N 30°04' W 093°31'2 4.1
2017-May-13 17:00N 30°04' W 093°33'2 4.9
2017-May-13 16:30N 30°04' W 093°36'3 5.1
2017-May-13 15:59N 30°04' W 093°39'3 5.2
2017-May-13 15:30N 30°03' W 093°42'71 4.6
2017-May-13 00:05N 29°23' W 094°49'1 7.9
2017-May-13 00:00N 29°24' W 094°49'4 7.8
2017-May-12 23:29N 29°27' W 094°51'3 7.1
2017-May-12 23:00N 29°30' W 094°52'4 7.3
2017-May-12 22:30N 29°33' W 094°55'4 7.1
2017-May-12 22:00N 29°36' W 094°57'4 7.2
2017-May-12 21:30N 29°40' W 094°58'3 6.8
2017-May-12 21:00N 29°42' W 095°01'3 6.2
2017-May-12 20:30N 29°44' W 095°04'2 2.5
2017-May-12 19:37N 29°45' W 095°06'1 4.5
2017-May-12 19:29N 29°44' W 095°07'3 5.2
2017-May-12 19:00N 29°44' W 095°10'  
Track history (hours):
 
Tides and Currents Weather Stations Pressure Air Temp Water Temp Dewpoint Dewpoint Depression Visibility Wind Speed Wind Dir Waves Ship Positions

Wes Sellars

Owner: Florida Marine, LLC, Mandeville, LA. More information available from US FCC via Universal Licensing System and Coast Guard Vessel Documentation Center.

Last reported at 2017-May-22 05:50 UTC. Time now 2017-Aug-21 04:23 UTC.
Position N 32°54' W 091°04'.
Warning: this ship's position is months out of date.

Length 27 m; draft 2.9 m.

Type: Towing. MMSI: 367503760.

Date/timePositionNaut miles runAvg speedWind from/ knotsBaromVisibWave heightAir tempDewpointWater temp
2017-May-22 05:50N 32°54' W 091°04'2 4.8
2017-May-22 05:26N 32°53' W 091°05'4 4.1
2017-May-22 04:32N 32°50' W 091°08'0 4.2
2017-May-22 04:30N 32°50' W 091°08'2 3.4
2017-May-22 03:49N 32°48' W 091°10'2 2.8
2017-May-22 03:06N 32°46' W 091°09'0 2.5
2017-May-22 03:00N 32°45' W 091°09'4 3.0
2017-May-22 01:33N 32°44' W 091°04'0 4.9
2017-May-22 01:30N 32°44' W 091°04'1 3.0
2017-May-22 01:00N 32°43' W 091°04'2 4.2
2017-May-22 00:30N 32°41' W 091°05'2 4.0
2017-May-21 23:58N 32°40' W 091°08'2 4.1
2017-May-21 23:28N 32°38' W 091°09'2 4.0
2017-May-21 23:00N 32°37' W 091°09'2 3.3
2017-May-21 22:30N 32°35' W 091°07'2 3.9
2017-May-21 22:00N 32°34' W 091°06'2 3.6
2017-May-21 21:30N 32°32' W 091°06'2 4.7
2017-May-21 21:00N 32°30' W 091°07'2 3.4
2017-May-21 20:30N 32°28' W 091°06'2 3.7
2017-May-21 20:00N 32°27' W 091°05'2 3.1
2017-May-21 19:30N 32°26' W 091°03'1 2.0
2017-May-21 19:00N 32°26' W 091°02'1 2.7
2017-May-21 18:30N 32°25' W 091°00'1 2.7
2017-May-21 18:00N 32°24' W 090°60'2 3.4
2017-May-21 17:30N 32°23' W 091°00'2 3.1
2017-May-21 17:00N 32°21' W 090°60'2 4.3
2017-May-21 16:30N 32°21' W 090°57'2 4.1
2017-May-21 16:00N 32°20' W 090°55'1 2.3
2017-May-21 15:30N 32°19' W 090°54'2 3.3
2017-May-21 15:00N 32°18' W 090°56'2 3.3
2017-May-21 14:30N 32°17' W 090°57'3 3.5
2017-May-21 13:30N 32°14' W 090°59'2 3.4
2017-May-21 13:00N 32°12' W 090°60'2 3.8
2017-May-21 12:30N 32°10' W 091°00'2 3.0
2017-May-21 12:00N 32°09' W 091°00'2 3.2
2017-May-21 11:30N 32°08' W 091°01'2 3.8
2017-May-21 10:59N 32°08' W 091°04'2 3.3
2017-May-21 10:30N 32°08' W 091°06'1 2.8
2017-May-21 10:00N 32°06' W 091°06'2 5.0
2017-May-21 09:30N 32°05' W 091°04'2 4.1
2017-May-21 09:00N 32°03' W 091°04'3 4.5
2017-May-21 08:19N 31°60' W 091°05'2 3.5
2017-May-21 07:47N 31°59' W 091°07'1 3.3
2017-May-21 07:30N 31°59' W 091°09'2 4.0
2017-May-21 07:00N 31°58' W 091°11'2 3.2
2017-May-21 06:30N 31°57' W 091°11'3 4.5
2017-May-21 05:47N 31°54' W 091°12'1 2.8
2017-May-21 05:30N 31°53' W 091°13'2 3.9
2017-May-21 04:59N 31°52' W 091°15'2 3.7
2017-May-21 04:30N 31°51' W 091°17'2 3.8
2017-May-21 04:00N 31°51' W 091°19'2 3.3
2017-May-21 03:30N 31°51' W 091°21'2 3.8
2017-May-21 03:00N 31°49' W 091°21'2 4.2
2017-May-21 02:28N 31°46' W 091°22'  
2017-May-15 12:30N 29°33' W 090°24'0 0.9
2017-May-15 12:00N 29°33' W 090°25'1 1.4
2017-May-15 11:30N 29°33' W 090°25'3 5.4
2017-May-15 11:00N 29°34' W 090°29'3 5.3
2017-May-15 10:30N 29°34' W 090°31'3 5.1
2017-May-15 10:00N 29°34' W 090°34'2 4.8
2017-May-15 09:30N 29°35' W 090°37'2 4.3
2017-May-15 09:00N 29°36' W 090°39'2 4.3
2017-May-15 08:30N 29°37' W 090°41'2 3.3
2017-May-15 08:00N 29°35' W 090°43'2 3.8
2017-May-15 07:30N 29°34' W 090°44'2 3.8
2017-May-15 07:00N 29°33' W 090°46'3 5.8
2017-May-15 06:30N 29°32' W 090°49'3 6.1
2017-May-15 05:58N 29°32' W 090°53'3 6.3
2017-May-15 05:28N 29°34' W 090°56'97 4.3
2017-May-14 06:52N 29°58' W 092°44'2 5.5
2017-May-14 06:30N 29°58' W 092°46'10 4.9
2017-May-14 04:29N 29°56' W 092°57'2 4.4
2017-May-14 04:00N 29°56' W 092°60'2 4.6
2017-May-14 03:30N 29°56' W 093°02'2 4.4
2017-May-14 03:00N 29°56' W 093°05'2 4.4
2017-May-14 02:30N 29°56' W 093°07'2 4.3
2017-May-14 02:00N 29°56' W 093°10'2 4.7
2017-May-14 01:30N 29°58' W 093°12'2 4.4
2017-May-14 01:00N 29°60' W 093°13'2 3.6
2017-May-14 00:30N 30°02' W 093°14'1 2.6
2017-May-14 00:00N 30°02' W 093°15'2 3.9
2017-May-13 23:30N 30°04' W 093°16'2 4.0
2017-May-13 23:00N 30°05' W 093°18'1 1.5
2017-May-13 22:30N 30°06' W 093°18'0 0.0
2017-May-13 22:00N 30°06' W 093°18'0 0.0
2017-May-13 21:30N 30°06' W 093°18'0 0.1
2017-May-13 21:00N 30°06' W 093°18'0 0.1
2017-May-13 20:30N 30°06' W 093°18'1 2.4
2017-May-13 20:00N 30°05' W 093°20'2 4.0
2017-May-13 19:30N 30°04' W 093°21'2 3.3
2017-May-13 19:00N 30°04' W 093°23'2 4.8
2017-May-13 18:30N 30°04' W 093°26'2 4.7
2017-May-13 18:00N 30°04' W 093°28'2 4.3
2017-May-13 17:30N 30°04' W 093°31'2 4.1
2017-May-13 17:00N 30°04' W 093°33'2 4.9
2017-May-13 16:30N 30°04' W 093°36'3 5.1
2017-May-13 15:59N 30°04' W 093°39'3 5.2
2017-May-13 15:30N 30°03' W 093°42'71 4.6
2017-May-13 00:05N 29°23' W 094°49'1 7.9
2017-May-13 00:00N 29°24' W 094°49'4 7.8
2017-May-12 23:29N 29°27' W 094°51'3 7.1
2017-May-12 23:00N 29°30' W 094°52'4 7.3
2017-May-12 22:30N 29°33' W 094°55'4 7.1
2017-May-12 22:00N 29°36' W 094°57'4 7.2
2017-May-12 21:30N 29°40' W 094°58'3 6.8
2017-May-12 21:00N 29°42' W 095°01'3 6.2
2017-May-12 20:30N 29°44' W 095°04'2 2.5
2017-May-12 19:37N 29°45' W 095°06'1 4.5
2017-May-12 19:29N 29°44' W 095°07'3 5.2
2017-May-12 19:00N 29°44' W 095°10'  

Dump ship's entire track history